Canistota, South Dakota
Current Conditions -  °F | °C
As of 11:56 AM on Friday 24 Oct 2014 (Local Time) from KFSD Reporting Station
Broken Clouds Broken Clouds  
Wind Chill: 65°   Ceiling: 20000
Heat Index: 65°   Visibility: 10mi
Dew Point: 53°   Wind: 3mph
Humidity: 65%   Direction: 300°WNW
Pressure: 29.91"   Gusts: NA
Location:  43.6°N, 97.29°W
Report Text: KFSD 241656Z 30003KT 10SM BKN200 18/12 A2991 RMK AO2 SLP125 T01830117
Loading
Personal Weather Stations






























Interactive Weather Map
Tropical Storm Tracking
New forecast layout! Learn more

10-Day Weather Forecast

Advertisements
Track Severe Weather on mobile